sensor_id;sensor_type;location;lat;lon;timestamp;temperature;humidity
20929;DHT22;21895;47.072;15.132;2023-03-21T00:00:34;5.50;99.90
20929;DHT22;21895;47.072;15.132;2023-03-21T00:03:00;5.60;99.90
20929;DHT22;21895;47.072;15.132;2023-03-21T00:05:27;5.30;99.90
20929;DHT22;21895;47.072;15.132;2023-03-21T00:07:54;5.10;99.90
20929;DHT22;21895;47.072;15.132;2023-03-21T00:10:20;4.90;99.90
20929;DHT22;21895;47.072;15.132;2023-03-21T00:13:05;4.80;99.90
20929;DHT22;21895;47.072;15.132;2023-03-21T00:15:31;4.90;99.90
20929;DHT22;21895;47.072;15.132;2023-03-21T00:18:14;4.90;99.90
20929;DHT22;21895;47.072;15.132;2023-03-21T00:20:42;5.00;99.90
20929;DHT22;21895;47.072;15.132;2023-03-21T00:23:11;5.50;99.90
20929;DHT22;21895;47.072;15.132;2023-03-21T00:25:38;5.80;99.90
20929;DHT22;21895;47.072;15.132;2023-03-21T00:28:05;6.10;99.90
20929;DHT22;21895;47.072;15.132;2023-03-21T00:30:34;6.20;99.90
20929;DHT22;21895;47.072;15.132;2023-03-21T00:33:00;6.30;99.90
20929;DHT22;21895;47.072;15.132;2023-03-21T00:35:45;6.30;99.90
20929;DHT22;21895;47.072;15.132;2023-03-21T00:38:28;6.20;99.90
20929;DHT22;21895;47.072;15.132;2023-03-21T00:40:54;6.30;99.90
20929;DHT22;21895;47.072;15.132;2023-03-21T00:43:22;6.40;99.90
20929;DHT22;21895;47.072;15.132;2023-03-21T00:45:56;6.50;99.90
20929;DHT22;21895;47.072;15.132;2023-03-21T00:48:25;6.20;99.90
20929;DHT22;21895;47.072;15.132;2023-03-21T00:50:53;6.10;99.90
20929;DHT22;21895;47.072;15.132;2023-03-21T00:53:22;6.00;99.90
20929;DHT22;21895;47.072;15.132;2023-03-21T00:55:50;5.80;99.90
20929;DHT22;21895;47.072;15.132;2023-03-21T00:58:17;5.80;99.90
20929;DHT22;21895;47.072;15.132;2023-03-21T01:00:43;5.70;99.90
20929;DHT22;21895;47.072;15.132;2023-03-21T01:03:13;5.50;99.90
20929;DHT22;21895;47.072;15.132;2023-03-21T01:05:51;5.40;99.90
20929;DHT22;21895;47.072;15.132;2023-03-21T01:08:38;5.40;99.90
20929;DHT22;21895;47.072;15.132;2023-03-21T01:11:20;5.70;99.90
20929;DHT22;21895;47.072;15.132;2023-03-21T01:13:54;6.00;99.90
20929;DHT22;21895;47.072;15.132;2023-03-21T01:16:41;6.20;99.90
20929;DHT22;21895;47.072;15.132;2023-03-21T01:19:10;6.30;99.90
20929;DHT22;21895;47.072;15.132;2023-03-21T01:21:50;6.30;99.90
20929;DHT22;21895;47.072;15.132;2023-03-21T01:24:17;6.20;99.90
20929;DHT22;21895;47.072;15.132;2023-03-21T01:26:43;6.20;99.90
20929;DHT22;21895;47.072;15.132;2023-03-21T01:29:10;6.20;99.90
20929;DHT22;21895;47.072;15.132;2023-03-21T01:31:36;6.20;99.90
20929;DHT22;21895;47.072;15.132;2023-03-21T01:34:03;5.80;99.90
20929;DHT22;21895;47.072;15.132;2023-03-21T01:36:30;5.40;99.90
20929;DHT22;21895;47.072;15.132;2023-03-21T01:38:56;5.10;99.90
20929;DHT22;21895;47.072;15.132;2023-03-21T01:41:32;5.00;99.90
20929;DHT22;21895;47.072;15.132;2023-03-21T01:44:15;4.90;99.90
20929;DHT22;21895;47.072;15.132;2023-03-21T01:46:48;4.80;99.90
20929;DHT22;21895;47.072;15.132;2023-03-21T01:49:41;4.70;99.90
20929;DHT22;21895;47.072;15.132;2023-03-21T01:52:14;4.50;99.90
20929;DHT22;21895;47.072;15.132;2023-03-21T01:55:03;4.40;99.90
20929;DHT22;21895;47.072;15.132;2023-03-21T01:57:39;4.40;99.90
20929;DHT22;21895;47.072;15.132;2023-03-21T02:00:27;4.40;99.90
20929;DHT22;21895;47.072;15.132;2023-03-21T02:02:54;4.40;99.90
20929;DHT22;21895;47.072;15.132;2023-03-21T02:05:58;4.40;99.90
20929;DHT22;21895;47.072;15.132;2023-03-21T02:08:28;4.20;99.90
20929;DHT22;21895;47.072;15.132;2023-03-21T02:11:06;4.20;99.90
20929;DHT22;21895;47.072;15.132;2023-03-21T02:13:34;4.20;99.90
20929;DHT22;21895;47.072;15.132;2023-03-21T02:16:13;4.30;99.90
20929;DHT22;21895;47.072;15.132;2023-03-21T02:25:00;4.60;99.90
20929;DHT22;21895;47.072;15.132;2023-03-21T02:40:31;3.80;99.90
20929;DHT22;21895;47.072;15.132;2023-03-21T02:43:14;3.90;99.90
20929;DHT22;21895;47.072;15.132;2023-03-21T02:45:54;3.70;99.90
20929;DHT22;21895;47.072;15.132;2023-03-21T02:48:38;3.70;99.90
20929;DHT22;21895;47.072;15.132;2023-03-21T02:51:22;3.70;99.90
20929;DHT22;21895;47.072;15.132;2023-03-21T02:54:09;3.70;99.90
20929;DHT22;21895;47.072;15.132;2023-03-21T02:57:01;3.60;99.90
20929;DHT22;21895;47.072;15.132;2023-03-21T02:59:30;3.90;99.90
20929;DHT22;21895;47.072;15.132;2023-03-21T03:02:01;4.10;99.90
20929;DHT22;21895;47.072;15.132;2023-03-21T03:04:28;4.30;99.90
20929;DHT22;21895;47.072;15.132;2023-03-21T03:08:00;4.40;99.90
20929;DHT22;21895;47.072;15.132;2023-03-21T03:17:14;4.20;99.90
20929;DHT22;21895;47.072;15.132;2023-03-21T03:21:49;3.50;99.90
20929;DHT22;21895;47.072;15.132;2023-03-21T03:24:32;3.30;99.90
20929;DHT22;21895;47.072;15.132;2023-03-21T03:27:23;3.20;99.90
20929;DHT22;21895;47.072;15.132;2023-03-21T03:29:57;3.20;99.90
20929;DHT22;21895;47.072;15.132;2023-03-21T03:33:10;3.10;99.90
20929;DHT22;21895;47.072;15.132;2023-03-21T03:35:43;2.90;99.90
20929;DHT22;21895;47.072;15.132;2023-03-21T03:38:20;3.00;99.90
20929;DHT22;21895;47.072;15.132;2023-03-21T03:40:52;3.00;99.90
20929;DHT22;21895;47.072;15.132;2023-03-21T03:43:31;2.80;99.90
20929;DHT22;21895;47.072;15.132;2023-03-21T03:46:31;2.70;99.90
20929;DHT22;21895;47.072;15.132;2023-03-21T03:49:08;2.70;99.90
20929;DHT22;21895;47.072;15.132;2023-03-21T03:53:19;3.00;99.90
20929;DHT22;21895;47.072;15.132;2023-03-21T03:55:49;3.10;99.90
20929;DHT22;21895;47.072;15.132;2023-03-21T03:58:20;3.20;99.90
20929;DHT22;21895;47.072;15.132;2023-03-21T04:00:54;3.00;99.90
20929;DHT22;21895;47.072;15.132;2023-03-21T04:03:21;2.80;99.90
20929;DHT22;21895;47.072;15.132;2023-03-21T04:05:48;2.80;99.90
20929;DHT22;21895;47.072;15.132;2023-03-21T04:08:15;2.70;99.90
20929;DHT22;21895;47.072;15.132;2023-03-21T04:10:42;2.60;99.90
20929;DHT22;21895;47.072;15.132;2023-03-21T04:13:09;2.50;99.90
20929;DHT22;21895;47.072;15.132;2023-03-21T04:15:36;2.60;99.90
20929;DHT22;21895;47.072;15.132;2023-03-21T04:18:03;2.60;99.90
20929;DHT22;21895;47.072;15.132;2023-03-21T04:20:29;2.40;99.90
20929;DHT22;21895;47.072;15.132;2023-03-21T04:23:04;2.40;99.90
20929;DHT22;21895;47.072;15.132;2023-03-21T04:25:34;2.30;99.90
20929;DHT22;21895;47.072;15.132;2023-03-21T04:28:05;2.20;99.90
20929;DHT22;21895;47.072;15.132;2023-03-21T04:30:32;2.30;99.90
20929;DHT22;21895;47.072;15.132;2023-03-21T04:32:59;2.40;99.90
20929;DHT22;21895;47.072;15.132;2023-03-21T04:35:26;2.30;99.90
20929;DHT22;21895;47.072;15.132;2023-03-21T04:37:53;2.20;99.90
20929;DHT22;21895;47.072;15.132;2023-03-21T04:40:20;2.20;99.90
20929;DHT22;21895;47.072;15.132;2023-03-21T04:42:47;2.20;99.90
20929;DHT22;21895;47.072;15.132;2023-03-21T04:45:15;2.20;99.90
20929;DHT22;21895;47.072;15.132;2023-03-21T04:47:42;2.30;99.90
20929;DHT22;21895;47.072;15.132;2023-03-21T04:50:10;2.30;99.90
20929;DHT22;21895;47.072;15.132;2023-03-21T04:52:38;2.30;99.90
20929;DHT22;21895;47.072;15.132;2023-03-21T04:55:05;2.40;99.90
20929;DHT22;21895;47.072;15.132;2023-03-21T04:57:36;2.30;99.90
20929;DHT22;21895;47.072;15.132;2023-03-21T05:00:06;2.30;99.90
20929;DHT22;21895;47.072;15.132;2023-03-21T05:02:35;2.30;99.90
20929;DHT22;21895;47.072;15.132;2023-03-21T05:05:02;2.30;99.90
20929;DHT22;21895;47.072;15.132;2023-03-21T05:07:29;2.50;99.90
20929;DHT22;21895;47.072;15.132;2023-03-21T05:09:57;2.50;99.90
20929;DHT22;21895;47.072;15.132;2023-03-21T05:12:27;2.40;99.90
20929;DHT22;21895;47.072;15.132;2023-03-21T05:14:53;2.30;99.90
20929;DHT22;21895;47.072;15.132;2023-03-21T05:17:20;2.20;99.90
20929;DHT22;21895;47.072;15.132;2023-03-21T05:19:50;1.90;99.90
20929;DHT22;21895;47.072;15.132;2023-03-21T05:22:18;1.70;99.90
20929;DHT22;21895;47.072;15.132;2023-03-21T05:24:45;1.80;99.90
20929;DHT22;21895;47.072;15.132;2023-03-21T05:27:18;2.00;99.90
20929;DHT22;21895;47.072;15.132;2023-03-21T05:30:14;2.10;99.90
20929;DHT22;21895;47.072;15.132;2023-03-21T05:32:42;2.20;99.90
20929;DHT22;21895;47.072;15.132;2023-03-21T05:35:09;2.00;99.90
20929;DHT22;21895;47.072;15.132;2023-03-21T05:37:35;2.10;99.90
20929;DHT22;21895;47.072;15.132;2023-03-21T05:40:04;2.10;99.90
20929;DHT22;21895;47.072;15.132;2023-03-21T05:42:32;2.20;99.90
20929;DHT22;21895;47.072;15.132;2023-03-21T05:44:58;2.50;99.90
20929;DHT22;21895;47.072;15.132;2023-03-21T05:47:25;3.10;99.90
20929;DHT22;21895;47.072;15.132;2023-03-21T05:49:52;3.50;99.90
20929;DHT22;21895;47.072;15.132;2023-03-21T05:52:18;3.10;99.90
20929;DHT22;21895;47.072;15.132;2023-03-21T05:54:45;2.90;99.90
20929;DHT22;21895;47.072;15.132;2023-03-21T05:57:11;2.90;99.90
20929;DHT22;21895;47.072;15.132;2023-03-21T05:59:38;3.00;99.90
20929;DHT22;21895;47.072;15.132;2023-03-21T06:02:04;3.20;99.90
20929;DHT22;21895;47.072;15.132;2023-03-21T06:04:31;3.30;99.90
20929;DHT22;21895;47.072;15.132;2023-03-21T06:06:58;3.50;99.90
20929;DHT22;21895;47.072;15.132;2023-03-21T06:09:24;3.60;99.90
20929;DHT22;21895;47.072;15.132;2023-03-21T06:11:52;3.50;99.90
20929;DHT22;21895;47.072;15.132;2023-03-21T06:14:22;3.60;99.90
20929;DHT22;21895;47.072;15.132;2023-03-21T06:16:49;3.70;99.90
20929;DHT22;21895;47.072;15.132;2023-03-21T06:19:17;3.90;99.90
20929;DHT22;21895;47.072;15.132;2023-03-21T06:21:43;4.10;99.90
20929;DHT22;21895;47.072;15.132;2023-03-21T06:24:10;4.30;99.90
20929;DHT22;21895;47.072;15.132;2023-03-21T06:26:36;4.40;99.90
20929;DHT22;21895;47.072;15.132;2023-03-21T06:29:03;4.60;99.90
20929;DHT22;21895;47.072;15.132;2023-03-21T06:31:30;4.80;99.90
20929;DHT22;21895;47.072;15.132;2023-03-21T06:33:56;5.10;99.90
20929;DHT22;21895;47.072;15.132;2023-03-21T06:36:23;5.40;99.90
20929;DHT22;21895;47.072;15.132;2023-03-21T06:38:49;5.60;99.90
20929;DHT22;21895;47.072;15.132;2023-03-21T06:41:16;5.90;99.90
20929;DHT22;21895;47.072;15.132;2023-03-21T06:43:43;6.20;99.90
20929;DHT22;21895;47.072;15.132;2023-03-21T06:46:10;6.60;99.90
20929;DHT22;21895;47.072;15.132;2023-03-21T06:48:36;6.90;99.90
20929;DHT22;21895;47.072;15.132;2023-03-21T06:51:11;7.10;99.90
20929;DHT22;21895;47.072;15.132;2023-03-21T06:53:38;7.30;99.90
20929;DHT22;21895;47.072;15.132;2023-03-21T06:56:08;7.50;99.90
20929;DHT22;21895;47.072;15.132;2023-03-21T06:58:36;7.70;99.90
20929;DHT22;21895;47.072;15.132;2023-03-21T07:01:03;8.00;99.90
20929;DHT22;21895;47.072;15.132;2023-03-21T07:03:31;8.20;99.90
20929;DHT22;21895;47.072;15.132;2023-03-21T07:05:57;8.50;99.90
20929;DHT22;21895;47.072;15.132;2023-03-21T07:08:28;8.70;99.90
20929;DHT22;21895;47.072;15.132;2023-03-21T07:10:55;8.90;99.90
20929;DHT22;21895;47.072;15.132;2023-03-21T07:13:24;9.20;99.90
20929;DHT22;21895;47.072;15.132;2023-03-21T07:15:51;9.40;99.90
20929;DHT22;21895;47.072;15.132;2023-03-21T07:18:19;9.50;99.90
20929;DHT22;21895;47.072;15.132;2023-03-21T07:20:46;9.60;99.90
20929;DHT22;21895;47.072;15.132;2023-03-21T07:23:20;9.80;99.90
20929;DHT22;21895;47.072;15.132;2023-03-21T07:25:48;10.00;99.90
20929;DHT22;21895;47.072;15.132;2023-03-21T07:28:16;10.30;99.90
20929;DHT22;21895;47.072;15.132;2023-03-21T07:30:43;10.50;99.90
20929;DHT22;21895;47.072;15.132;2023-03-21T07:33:11;10.70;99.90
20929;DHT22;21895;47.072;15.132;2023-03-21T07:35:37;10.90;99.40
20929;DHT22;21895;47.072;15.132;2023-03-21T07:38:05;11.00;99.40
20929;DHT22;21895;47.072;15.132;2023-03-21T07:40:32;11.10;99.20
20929;DHT22;21895;47.072;15.132;2023-03-21T07:42:58;11.30;98.70
20929;DHT22;21895;47.072;15.132;2023-03-21T07:45:25;11.30;98.40
20929;DHT22;21895;47.072;15.132;2023-03-21T07:47:52;11.50;98.30
20929;DHT22;21895;47.072;15.132;2023-03-21T07:50:19;11.70;98.00
20929;DHT22;21895;47.072;15.132;2023-03-21T07:52:46;11.80;97.50
20929;DHT22;21895;47.072;15.132;2023-03-21T07:55:13;12.00;97.30
20929;DHT22;21895;47.072;15.132;2023-03-21T07:57:42;12.20;97.10
20929;DHT22;21895;47.072;15.132;2023-03-21T08:00:09;12.30;97.20
20929;DHT22;21895;47.072;15.132;2023-03-21T08:02:37;12.50;96.80
20929;DHT22;21895;47.072;15.132;2023-03-21T08:05:04;12.60;96.60
20929;DHT22;21895;47.072;15.132;2023-03-21T08:07:31;12.70;96.70
20929;DHT22;21895;47.072;15.132;2023-03-21T08:09:57;13.00;95.80
20929;DHT22;21895;47.072;15.132;2023-03-21T08:12:24;13.10;95.50
20929;DHT22;21895;47.072;15.132;2023-03-21T08:14:51;13.30;95.20
20929;DHT22;21895;47.072;15.132;2023-03-21T08:17:17;13.40;94.80
20929;DHT22;21895;47.072;15.132;2023-03-21T08:19:44;13.40;94.10
20929;DHT22;21895;47.072;15.132;2023-03-21T08:22:10;13.60;93.60
20929;DHT22;21895;47.072;15.132;2023-03-21T08:24:37;13.80;93.50
20929;DHT22;21895;47.072;15.132;2023-03-21T08:27:03;13.90;93.30
20929;DHT22;21895;47.072;15.132;2023-03-21T08:29:30;14.00;93.20
20929;DHT22;21895;47.072;15.132;2023-03-21T08:31:57;14.10;93.50
20929;DHT22;21895;47.072;15.132;2023-03-21T08:34:23;14.30;92.90
20929;DHT22;21895;47.072;15.132;2023-03-21T08:36:51;14.40;92.80
20929;DHT22;21895;47.072;15.132;2023-03-21T08:39:18;14.60;92.70
20929;DHT22;21895;47.072;15.132;2023-03-21T08:41:46;14.70;92.40
20929;DHT22;21895;47.072;15.132;2023-03-21T08:44:13;14.80;92.50
20929;DHT22;21895;47.072;15.132;2023-03-21T08:46:42;14.90;91.30
20929;DHT22;21895;47.072;15.132;2023-03-21T08:49:09;14.90;91.80
20929;DHT22;21895;47.072;15.132;2023-03-21T08:51:37;15.10;91.50
20929;DHT22;21895;47.072;15.132;2023-03-21T08:54:03;15.20;90.90
20929;DHT22;21895;47.072;15.132;2023-03-21T08:56:30;15.30;91.10
20929;DHT22;21895;47.072;15.132;2023-03-21T08:58:56;15.70;88.10
20929;DHT22;21895;47.072;15.132;2023-03-21T09:01:23;15.80;87.60
20929;DHT22;21895;47.072;15.132;2023-03-21T09:03:51;16.00;84.90
20929;DHT22;21895;47.072;15.132;2023-03-21T09:06:17;16.20;84.70
20929;DHT22;21895;47.072;15.132;2023-03-21T09:08:44;16.40;81.80
20929;DHT22;21895;47.072;15.132;2023-03-21T09:11:11;16.50;82.50
20929;DHT22;21895;47.072;15.132;2023-03-21T09:13:37;16.70;80.80
20929;DHT22;21895;47.072;15.132;2023-03-21T09:16:04;16.70;80.20
20929;DHT22;21895;47.072;15.132;2023-03-21T09:18:31;16.70;77.30
20929;DHT22;21895;47.072;15.132;2023-03-21T09:21:13;16.80;79.30
20929;DHT22;21895;47.072;15.132;2023-03-21T09:23:41;17.00;77.30
20929;DHT22;21895;47.072;15.132;2023-03-21T09:26:09;17.20;75.80
20929;DHT22;21895;47.072;15.132;2023-03-21T09:28:37;17.30;76.50
20929;DHT22;21895;47.072;15.132;2023-03-21T09:31:04;17.50;75.00
20929;DHT22;21895;47.072;15.132;2023-03-21T09:33:33;17.40;75.30
20929;DHT22;21895;47.072;15.132;2023-03-21T09:36:00;17.30;75.40
20929;DHT22;21895;47.072;15.132;2023-03-21T09:38:27;17.30;74.90
20929;DHT22;21895;47.072;15.132;2023-03-21T09:42:37;17.20;78.00
20929;DHT22;21895;47.072;15.132;2023-03-21T09:45:54;17.10;78.00
20929;DHT22;21895;47.072;15.132;2023-03-21T09:50:45;17.00;76.50
20929;DHT22;21895;47.072;15.132;2023-03-21T09:53:22;17.10;75.50
20929;DHT22;21895;47.072;15.132;2023-03-21T09:55:56;17.10;76.20
20929;DHT22;21895;47.072;15.132;2023-03-21T09:58:45;17.20;76.10
20929;DHT22;21895;47.072;15.132;2023-03-21T10:01:20;17.40;75.30
20929;DHT22;21895;47.072;15.132;2023-03-21T10:04:04;17.30;74.80
20929;DHT22;21895;47.072;15.132;2023-03-21T10:06:36;17.10;74.60
20929;DHT22;21895;47.072;15.132;2023-03-21T10:09:15;16.90;74.80
20929;DHT22;21895;47.072;15.132;2023-03-21T10:11:57;16.80;74.90
20929;DHT22;21895;47.072;15.132;2023-03-21T10:14:35;16.90;74.40
20929;DHT22;21895;47.072;15.132;2023-03-21T10:18:36;17.00;74.40
20929;DHT22;21895;47.072;15.132;2023-03-21T10:21:04;17.20;72.80
20929;DHT22;21895;47.072;15.132;2023-03-21T10:23:32;17.00;72.50
20929;DHT22;21895;47.072;15.132;2023-03-21T10:26:00;17.00;73.50
20929;DHT22;21895;47.072;15.132;2023-03-21T10:28:36;17.10;72.90
20929;DHT22;21895;47.072;15.132;2023-03-21T10:31:21;17.30;73.40
20929;DHT22;21895;47.072;15.132;2023-03-21T10:33:53;17.50;72.60
20929;DHT22;21895;47.072;15.132;2023-03-21T10:36:29;17.80;74.10
20929;DHT22;21895;47.072;15.132;2023-03-21T10:39:25;18.10;71.10
20929;DHT22;21895;47.072;15.132;2023-03-21T10:41:57;18.10;70.60
20929;DHT22;21895;47.072;15.132;2023-03-21T10:44:29;17.90;69.60
20929;DHT22;21895;47.072;15.132;2023-03-21T10:47:03;17.70;71.60
20929;DHT22;21895;47.072;15.132;2023-03-21T10:49:32;17.50;72.20
20929;DHT22;21895;47.072;15.132;2023-03-21T10:52:19;17.60;72.60
20929;DHT22;21895;47.072;15.132;2023-03-21T10:54:48;17.70;72.40
20929;DHT22;21895;47.072;15.132;2023-03-21T10:57:21;17.70;71.60
20929;DHT22;21895;47.072;15.132;2023-03-21T11:00:22;17.70;71.40
20929;DHT22;21895;47.072;15.132;2023-03-21T11:02:52;17.70;71.60
20929;DHT22;21895;47.072;15.132;2023-03-21T11:05:39;17.70;72.80
20929;DHT22;21895;47.072;15.132;2023-03-21T11:08:25;17.70;72.00
20929;DHT22;21895;47.072;15.132;2023-03-21T11:11:04;17.60;72.30
20929;DHT22;21895;47.072;15.132;2023-03-21T11:13:43;17.30;72.60
20929;DHT22;21895;47.072;15.132;2023-03-21T11:16:25;17.10;73.60
20929;DHT22;21895;47.072;15.132;2023-03-21T11:19:01;16.90;74.50
20929;DHT22;21895;47.072;15.132;2023-03-21T11:21:37;17.00;75.20
20929;DHT22;21895;47.072;15.132;2023-03-21T11:24:05;17.00;75.50
20929;DHT22;21895;47.072;15.132;2023-03-21T11:26:38;17.20;75.60
20929;DHT22;21895;47.072;15.132;2023-03-21T11:29:34;17.50;72.90
20929;DHT22;21895;47.072;15.132;2023-03-21T11:32:12;17.70;73.30
20929;DHT22;21895;47.072;15.132;2023-03-21T11:35:14;17.70;72.90
20929;DHT22;21895;47.072;15.132;2023-03-21T11:37:50;17.80;73.40
20929;DHT22;21895;47.072;15.132;2023-03-21T11:40:24;17.60;74.20
20929;DHT22;21895;47.072;15.132;2023-03-21T11:47:56;17.30;74.90
20929;DHT22;21895;47.072;15.132;2023-03-21T11:50:34;17.10;75.20
20929;DHT22;21895;47.072;15.132;2023-03-21T11:53:58;17.10;75.20
20929;DHT22;21895;47.072;15.132;2023-03-21T11:56:44;17.00;75.30
20929;DHT22;21895;47.072;15.132;2023-03-21T12:00:17;16.90;76.20
20929;DHT22;21895;47.072;15.132;2023-03-21T12:03:20;16.80;76.50
20929;DHT22;21895;47.072;15.132;2023-03-21T12:21:05;17.60;75.50
20929;DHT22;21895;47.072;15.132;2023-03-21T12:24:35;17.80;75.00
20929;DHT22;21895;47.072;15.132;2023-03-21T12:30:29;18.10;75.00
20929;DHT22;21895;47.072;15.132;2023-03-21T12:33:35;18.10;74.70
20929;DHT22;21895;47.072;15.132;2023-03-21T12:39:37;18.10;75.00
20929;DHT22;21895;47.072;15.132;2023-03-21T12:42:48;17.80;74.90
20929;DHT22;21895;47.072;15.132;2023-03-21T12:47:38;17.80;75.00
20929;DHT22;21895;47.072;15.132;2023-03-21T12:50:17;18.00;74.70
20929;DHT22;21895;47.072;15.132;2023-03-21T12:52:58;18.00;74.70
20929;DHT22;21895;47.072;15.132;2023-03-21T12:55:33;18.00;75.60
20929;DHT22;21895;47.072;15.132;2023-03-21T12:58:14;18.10;73.80
20929;DHT22;21895;47.072;15.132;2023-03-21T13:00:52;18.10;73.20
20929;DHT22;21895;47.072;15.132;2023-03-21T13:03:25;18.10;71.80
20929;DHT22;21895;47.072;15.132;2023-03-21T13:06:09;18.10;72.50
20929;DHT22;21895;47.072;15.132;2023-03-21T13:09:55;18.20;73.10
20929;DHT22;21895;47.072;15.132;2023-03-21T13:12:33;18.30;73.00
20929;DHT22;21895;47.072;15.132;2023-03-21T13:16:45;18.30;72.90
20929;DHT22;21895;47.072;15.132;2023-03-21T13:19:54;18.40;73.30
20929;DHT22;21895;47.072;15.132;2023-03-21T13:22:31;18.30;73.80
20929;DHT22;21895;47.072;15.132;2023-03-21T13:25:31;18.10;73.60
20929;DHT22;21895;47.072;15.132;2023-03-21T13:28:03;18.00;73.80
20929;DHT22;21895;47.072;15.132;2023-03-21T13:30:31;17.90;74.50
20929;DHT22;21895;47.072;15.132;2023-03-21T13:33:12;17.80;74.40
20929;DHT22;21895;47.072;15.132;2023-03-21T13:35:43;17.70;75.30
20929;DHT22;21895;47.072;15.132;2023-03-21T13:38:20;17.90;75.00
20929;DHT22;21895;47.072;15.132;2023-03-21T13:41:08;18.20;74.40
20929;DHT22;21895;47.072;15.132;2023-03-21T13:47:55;18.50;74.00
20929;DHT22;21895;47.072;15.132;2023-03-21T13:50:52;18.70;72.90
20929;DHT22;21895;47.072;15.132;2023-03-21T13:53:39;18.90;72.50
20929;DHT22;21895;47.072;15.132;2023-03-21T13:56:21;19.00;72.30
20929;DHT22;21895;47.072;15.132;2023-03-21T13:58:54;19.20;72.00
20929;DHT22;21895;47.072;15.132;2023-03-21T14:01:38;19.20;71.60
20929;DHT22;21895;47.072;15.132;2023-03-21T14:04:20;19.20;70.80
20929;DHT22;21895;47.072;15.132;2023-03-21T14:07:11;19.30;70.50
20929;DHT22;21895;47.072;15.132;2023-03-21T14:10:00;19.40;69.70
20929;DHT22;21895;47.072;15.132;2023-03-21T14:12:40;19.40;70.20
20929;DHT22;21895;47.072;15.132;2023-03-21T14:15:23;19.20;71.40
20929;DHT22;21895;47.072;15.132;2023-03-21T14:17:56;18.80;71.60
20929;DHT22;21895;47.072;15.132;2023-03-21T14:20:41;18.70;72.00
20929;DHT22;21895;47.072;15.132;2023-03-21T14:23:14;18.60;71.80
20929;DHT22;21895;47.072;15.132;2023-03-21T14:25:43;18.50;72.30
20929;DHT22;21895;47.072;15.132;2023-03-21T14:28:24;18.50;73.50
20929;DHT22;21895;47.072;15.132;2023-03-21T14:31:00;18.40;72.60
20929;DHT22;21895;47.072;15.132;2023-03-21T14:33:41;18.40;72.90
20929;DHT22;21895;47.072;15.132;2023-03-21T14:36:23;18.40;71.90
20929;DHT22;21895;47.072;15.132;2023-03-21T14:38:56;18.40;73.00
20929;DHT22;21895;47.072;15.132;2023-03-21T14:41:30;18.60;73.00
20929;DHT22;21895;47.072;15.132;2023-03-21T14:47:58;18.60;71.60
20929;DHT22;21895;47.072;15.132;2023-03-21T14:50:45;18.60;71.70
20929;DHT22;21895;47.072;15.132;2023-03-21T14:53:20;18.70;72.20
20929;DHT22;21895;47.072;15.132;2023-03-21T14:56:00;18.80;71.70
20929;DHT22;21895;47.072;15.132;2023-03-21T14:58:32;18.80;71.80
20929;DHT22;21895;47.072;15.132;2023-03-21T15:01:05;18.80;71.00
20929;DHT22;21895;47.072;15.132;2023-03-21T15:03:38;18.90;71.20
20929;DHT22;21895;47.072;15.132;2023-03-21T15:06:11;18.90;71.00
20929;DHT22;21895;47.072;15.132;2023-03-21T15:08:39;19.00;69.60
20929;DHT22;21895;47.072;15.132;2023-03-21T15:11:10;18.90;71.20
20929;DHT22;21895;47.072;15.132;2023-03-21T15:13:46;18.80;71.20
20929;DHT22;21895;47.072;15.132;2023-03-21T15:16:17;18.80;69.90
20929;DHT22;21895;47.072;15.132;2023-03-21T15:18:45;18.90;69.20
20929;DHT22;21895;47.072;15.132;2023-03-21T15:21:20;18.80;70.00
20929;DHT22;21895;47.072;15.132;2023-03-21T15:23:57;18.70;70.80
20929;DHT22;21895;47.072;15.132;2023-03-21T15:26:29;18.60;70.70
20929;DHT22;21895;47.072;15.132;2023-03-21T15:28:59;18.50;71.70
20929;DHT22;21895;47.072;15.132;2023-03-21T15:31:30;18.50;71.90
20929;DHT22;21895;47.072;15.132;2023-03-21T15:34:03;18.50;72.40
20929;DHT22;21895;47.072;15.132;2023-03-21T15:36:43;18.50;73.50
20929;DHT22;21895;47.072;15.132;2023-03-21T15:39:13;18.40;71.50
20929;DHT22;21895;47.072;15.132;2023-03-21T15:41:56;18.20;73.10
20929;DHT22;21895;47.072;15.132;2023-03-21T15:44:26;18.20;72.90
20929;DHT22;21895;47.072;15.132;2023-03-21T15:46:54;18.10;72.80
20929;DHT22;21895;47.072;15.132;2023-03-21T15:49:29;17.80;73.20
20929;DHT22;21895;47.072;15.132;2023-03-21T15:52:04;17.70;73.30
20929;DHT22;21895;47.072;15.132;2023-03-21T15:54:50;17.60;74.30
20929;DHT22;21895;47.072;15.132;2023-03-21T15:57:26;17.40;74.50
20929;DHT22;21895;47.072;15.132;2023-03-21T16:04:20;17.20;75.00
20929;DHT22;21895;47.072;15.132;2023-03-21T16:07:14;16.90;76.00
20929;DHT22;21895;47.072;15.132;2023-03-21T16:09:44;16.70;76.30
20929;DHT22;21895;47.072;15.132;2023-03-21T16:12:13;16.60;77.00
20929;DHT22;21895;47.072;15.132;2023-03-21T16:14:42;16.50;77.60
20929;DHT22;21895;47.072;15.132;2023-03-21T16:17:32;16.30;77.90
20929;DHT22;21895;47.072;15.132;2023-03-21T16:20:16;16.30;78.10
20929;DHT22;21895;47.072;15.132;2023-03-21T16:22:49;16.20;78.20
20929;DHT22;21895;47.072;15.132;2023-03-21T16:25:16;16.30;77.90
20929;DHT22;21895;47.072;15.132;2023-03-21T16:27:44;16.20;78.50
20929;DHT22;21895;47.072;15.132;2023-03-21T16:30:13;16.10;78.80
20929;DHT22;21895;47.072;15.132;2023-03-21T16:32:42;15.90;79.40
20929;DHT22;21895;47.072;15.132;2023-03-21T16:35:09;15.80;80.70
20929;DHT22;21895;47.072;15.132;2023-03-21T16:37:36;15.60;81.30
20929;DHT22;21895;47.072;15.132;2023-03-21T16:40:09;15.50;82.70
20929;DHT22;21895;47.072;15.132;2023-03-21T16:43:01;15.20;82.70
20929;DHT22;21895;47.072;15.132;2023-03-21T16:45:28;15.00;83.50
20929;DHT22;21895;47.072;15.132;2023-03-21T16:47:55;14.80;83.90
20929;DHT22;21895;47.072;15.132;2023-03-21T16:50:32;14.60;86.70
20929;DHT22;21895;47.072;15.132;2023-03-21T16:53:02;14.40;87.00
20929;DHT22;21895;47.072;15.132;2023-03-21T16:55:29;14.10;87.40
20929;DHT22;21895;47.072;15.132;2023-03-21T16:57:58;13.90;87.90
20929;DHT22;21895;47.072;15.132;2023-03-21T17:00:27;13.70;88.30
20929;DHT22;21895;47.072;15.132;2023-03-21T17:02:59;13.60;88.50
20929;DHT22;21895;47.072;15.132;2023-03-21T17:05:28;13.50;88.20
20929;DHT22;21895;47.072;15.132;2023-03-21T17:07:57;13.40;88.20
20929;DHT22;21895;47.072;15.132;2023-03-21T17:10:29;13.40;88.00
20929;DHT22;21895;47.072;15.132;2023-03-21T17:12:57;13.40;88.20
20929;DHT22;21895;47.072;15.132;2023-03-21T17:15:23;13.20;90.60
20929;DHT22;21895;47.072;15.132;2023-03-21T17:17:50;13.00;91.00
20929;DHT22;21895;47.072;15.132;2023-03-21T17:20:25;12.80;90.60
20929;DHT22;21895;47.072;15.132;2023-03-21T17:22:56;12.90;90.90